EYVI

Vilnius International Airport

Vilnius, Lithuania
METAR EYVI 220620Z 28006KT 240V320 CAVOK 10/03 Q1011 NOSIG
Observed Flight Rules
Apr-22 @ 06:20 UTC (38 minutes ago) Visual Flight Rules
Wind Visibility Clouds
280° at 6 knots 10,000+ meters
  • Clear skies
Temperatures Readings
Current 10°C / 50°F
Dewpoint 3°C / 37°F
Humidity 62%
Altimeter 29.85" Hg
Pressure 1011 hPa
Elevation 197
METAR EYVI 220620Z 28006KT 240V320 CAVOK 10/03 Q1011 NOSIG
Observed Flight Rules
Apr-22 @ 06:20 UTC
(38 minutes ago)
VFR
Wind Visibility
280° at 6 knots 10,000+ meters
Clouds
  • Clear skies
Temperature Dewpoint
10°C / 50°F 3°C / 37°F
Humidity Altimeter Pressure
62% 29.85" Hg 1011 hPa